sensor_id;sensor_type;location;lat;lon;timestamp;temperature;humidity
59975;DHT22;62136;-35.664;-63.766;2023-03-01T00:01:31;31.90;40.90
59975;DHT22;62136;-35.664;-63.766;2023-03-01T00:03:59;31.80;40.90
59975;DHT22;62136;-35.664;-63.766;2023-03-01T00:06:27;31.80;40.90
59975;DHT22;62136;-35.664;-63.766;2023-03-01T00:08:54;31.80;40.90
59975;DHT22;62136;-35.664;-63.766;2023-03-01T00:11:24;31.80;41.00
59975;DHT22;62136;-35.664;-63.766;2023-03-01T00:13:53;31.80;40.90
59975;DHT22;62136;-35.664;-63.766;2023-03-01T00:16:26;31.80;41.00
59975;DHT22;62136;-35.664;-63.766;2023-03-01T00:18:55;31.80;40.90
59975;DHT22;62136;-35.664;-63.766;2023-03-01T00:21:23;31.80;40.90
59975;DHT22;62136;-35.664;-63.766;2023-03-01T00:23:50;31.70;40.80
59975;DHT22;62136;-35.664;-63.766;2023-03-01T00:26:19;31.80;40.90
59975;DHT22;62136;-35.664;-63.766;2023-03-01T00:28:47;31.70;40.80
59975;DHT22;62136;-35.664;-63.766;2023-03-01T00:31:16;31.80;40.80
59975;DHT22;62136;-35.664;-63.766;2023-03-01T00:33:44;31.70;40.80
59975;DHT22;62136;-35.664;-63.766;2023-03-01T00:36:13;31.70;40.80
59975;DHT22;62136;-35.664;-63.766;2023-03-01T00:38:43;31.60;40.80
59975;DHT22;62136;-35.664;-63.766;2023-03-01T00:41:13;31.60;40.70
59975;DHT22;62136;-35.664;-63.766;2023-03-01T00:43:41;31.60;40.70
59975;DHT22;62136;-35.664;-63.766;2023-03-01T00:46:10;31.60;40.70
59975;DHT22;62136;-35.664;-63.766;2023-03-01T00:48:38;31.60;40.70
59975;DHT22;62136;-35.664;-63.766;2023-03-01T00:53:39;31.60;40.70
59975;DHT22;62136;-35.664;-63.766;2023-03-01T00:56:09;31.60;40.70
59975;DHT22;62136;-35.664;-63.766;2023-03-01T00:58:36;31.60;40.70
59975;DHT22;62136;-35.664;-63.766;2023-03-01T01:01:16;31.50;40.60
59975;DHT22;62136;-35.664;-63.766;2023-03-01T01:03:52;31.50;40.70
59975;DHT22;62136;-35.664;-63.766;2023-03-01T01:06:21;31.50;40.60
59975;DHT22;62136;-35.664;-63.766;2023-03-01T01:08:49;31.50;40.70
59975;DHT22;62136;-35.664;-63.766;2023-03-01T01:11:17;31.50;40.70
59975;DHT22;62136;-35.664;-63.766;2023-03-01T01:13:45;31.50;40.80
59975;DHT22;62136;-35.664;-63.766;2023-03-01T01:16:14;31.50;40.60
59975;DHT22;62136;-35.664;-63.766;2023-03-01T01:18:41;31.50;40.70
59975;DHT22;62136;-35.664;-63.766;2023-03-01T01:21:11;31.40;40.60
59975;DHT22;62136;-35.664;-63.766;2023-03-01T01:23:40;31.40;40.60
59975;DHT22;62136;-35.664;-63.766;2023-03-01T01:26:10;31.40;40.60
59975;DHT22;62136;-35.664;-63.766;2023-03-01T01:28:37;31.40;40.70
59975;DHT22;62136;-35.664;-63.766;2023-03-01T01:31:05;31.40;40.70
59975;DHT22;62136;-35.664;-63.766;2023-03-01T01:33:33;31.40;40.70
59975;DHT22;62136;-35.664;-63.766;2023-03-01T01:36:00;31.40;40.80
59975;DHT22;62136;-35.664;-63.766;2023-03-01T01:38:27;31.30;40.70
59975;DHT22;62136;-35.664;-63.766;2023-03-01T01:40:54;31.30;40.70
59975;DHT22;62136;-35.664;-63.766;2023-03-01T01:43:25;31.30;40.70
59975;DHT22;62136;-35.664;-63.766;2023-03-01T01:46:30;31.40;40.80
59975;DHT22;62136;-35.664;-63.766;2023-03-01T01:49:05;31.30;40.70
59975;DHT22;62136;-35.664;-63.766;2023-03-01T01:51:38;31.30;40.70
59975;DHT22;62136;-35.664;-63.766;2023-03-01T01:54:12;31.30;40.70
59975;DHT22;62136;-35.664;-63.766;2023-03-01T01:56:48;31.20;40.80
59975;DHT22;62136;-35.664;-63.766;2023-03-01T01:59:18;31.20;40.80
59975;DHT22;62136;-35.664;-63.766;2023-03-01T02:01:45;31.20;40.70
59975;DHT22;62136;-35.664;-63.766;2023-03-01T02:04:12;31.20;40.70
59975;DHT22;62136;-35.664;-63.766;2023-03-01T02:06:48;31.20;40.80
59975;DHT22;62136;-35.664;-63.766;2023-03-01T02:09:19;31.20;40.80
59975;DHT22;62136;-35.664;-63.766;2023-03-01T02:11:48;31.20;40.80
59975;DHT22;62136;-35.664;-63.766;2023-03-01T02:14:16;31.20;40.90
59975;DHT22;62136;-35.664;-63.766;2023-03-01T02:16:46;31.20;40.80
59975;DHT22;62136;-35.664;-63.766;2023-03-01T02:22:25;31.20;40.80
59975;DHT22;62136;-35.664;-63.766;2023-03-01T02:30:26;31.10;40.80
59975;DHT22;62136;-35.664;-63.766;2023-03-01T02:32:55;31.00;40.90
59975;DHT22;62136;-35.664;-63.766;2023-03-01T02:35:35;31.00;40.90
59975;DHT22;62136;-35.664;-63.766;2023-03-01T02:38:12;31.00;40.90
59975;DHT22;62136;-35.664;-63.766;2023-03-01T02:40:41;31.00;40.90
59975;DHT22;62136;-35.664;-63.766;2023-03-01T02:43:09;31.00;40.90
59975;DHT22;62136;-35.664;-63.766;2023-03-01T02:45:37;31.00;41.00
59975;DHT22;62136;-35.664;-63.766;2023-03-01T02:48:04;31.00;41.10
59975;DHT22;62136;-35.664;-63.766;2023-03-01T02:55:31;30.90;41.00
59975;DHT22;62136;-35.664;-63.766;2023-03-01T02:57:59;30.90;41.00
59975;DHT22;62136;-35.664;-63.766;2023-03-01T03:00:38;30.90;41.10
59975;DHT22;62136;-35.664;-63.766;2023-03-01T03:03:20;30.80;41.10
59975;DHT22;62136;-35.664;-63.766;2023-03-01T03:05:48;30.80;41.10
59975;DHT22;62136;-35.664;-63.766;2023-03-01T03:08:15;30.90;41.10
59975;DHT22;62136;-35.664;-63.766;2023-03-01T03:10:49;30.80;41.20
59975;DHT22;62136;-35.664;-63.766;2023-03-01T03:13:17;30.80;41.20
59975;DHT22;62136;-35.664;-63.766;2023-03-01T03:15:45;30.80;41.20
59975;DHT22;62136;-35.664;-63.766;2023-03-01T03:18:15;30.80;41.20
59975;DHT22;62136;-35.664;-63.766;2023-03-01T03:20:43;30.80;41.20
59975;DHT22;62136;-35.664;-63.766;2023-03-01T03:23:11;30.70;41.10
59975;DHT22;62136;-35.664;-63.766;2023-03-01T03:25:38;30.70;41.10
59975;DHT22;62136;-35.664;-63.766;2023-03-01T03:28:06;30.70;41.20
59975;DHT22;62136;-35.664;-63.766;2023-03-01T03:30:41;30.60;41.20
59975;DHT22;62136;-35.664;-63.766;2023-03-01T03:33:10;30.70;41.80
59975;DHT22;62136;-35.664;-63.766;2023-03-01T03:35:48;30.70;41.40
59975;DHT22;62136;-35.664;-63.766;2023-03-01T03:38:18;30.60;41.30
59975;DHT22;62136;-35.664;-63.766;2023-03-01T03:40:50;30.60;41.40
59975;DHT22;62136;-35.664;-63.766;2023-03-01T03:43:20;30.60;41.40
59975;DHT22;62136;-35.664;-63.766;2023-03-01T03:45:49;30.60;41.40
59975;DHT22;62136;-35.664;-63.766;2023-03-01T03:48:17;30.60;41.40
59975;DHT22;62136;-35.664;-63.766;2023-03-01T03:50:49;30.60;41.40
59975;DHT22;62136;-35.664;-63.766;2023-03-01T03:53:17;30.50;41.40
59975;DHT22;62136;-35.664;-63.766;2023-03-01T03:55:47;30.60;41.40
59975;DHT22;62136;-35.664;-63.766;2023-03-01T03:58:19;30.50;41.40
59975;DHT22;62136;-35.664;-63.766;2023-03-01T04:00:52;30.50;41.50
59975;DHT22;62136;-35.664;-63.766;2023-03-01T04:03:20;30.50;41.50
59975;DHT22;62136;-35.664;-63.766;2023-03-01T04:05:48;30.50;41.50
59975;DHT22;62136;-35.664;-63.766;2023-03-01T04:08:21;30.50;41.50
59975;DHT22;62136;-35.664;-63.766;2023-03-01T04:10:52;30.40;41.50
59975;DHT22;62136;-35.664;-63.766;2023-03-01T04:13:25;30.50;41.60
59975;DHT22;62136;-35.664;-63.766;2023-03-01T04:15:54;30.40;41.60
59975;DHT22;62136;-35.664;-63.766;2023-03-01T04:18:25;30.40;41.60
59975;DHT22;62136;-35.664;-63.766;2023-03-01T04:20:53;30.40;41.70
59975;DHT22;62136;-35.664;-63.766;2023-03-01T04:23:21;30.40;41.70
59975;DHT22;62136;-35.664;-63.766;2023-03-01T04:25:57;30.30;41.70
59975;DHT22;62136;-35.664;-63.766;2023-03-01T04:28:26;30.30;41.80
59975;DHT22;62136;-35.664;-63.766;2023-03-01T04:30:55;30.30;41.80
59975;DHT22;62136;-35.664;-63.766;2023-03-01T04:33:23;30.30;41.80
59975;DHT22;62136;-35.664;-63.766;2023-03-01T04:35:50;30.30;41.80
59975;DHT22;62136;-35.664;-63.766;2023-03-01T04:38:21;30.20;41.80
59975;DHT22;62136;-35.664;-63.766;2023-03-01T04:40:48;30.30;41.90
59975;DHT22;62136;-35.664;-63.766;2023-03-01T04:43:15;30.30;42.00
59975;DHT22;62136;-35.664;-63.766;2023-03-01T04:45:42;30.20;41.90
59975;DHT22;62136;-35.664;-63.766;2023-03-01T04:48:12;30.20;42.00
59975;DHT22;62136;-35.664;-63.766;2023-03-01T04:50:39;30.20;42.10
59975;DHT22;62136;-35.664;-63.766;2023-03-01T04:53:07;30.20;42.00
59975;DHT22;62136;-35.664;-63.766;2023-03-01T04:55:34;30.20;42.10
59975;DHT22;62136;-35.664;-63.766;2023-03-01T04:58:01;30.10;42.00
59975;DHT22;62136;-35.664;-63.766;2023-03-01T05:00:28;30.10;42.10
59975;DHT22;62136;-35.664;-63.766;2023-03-01T05:03:00;30.10;42.20
59975;DHT22;62136;-35.664;-63.766;2023-03-01T05:05:33;30.10;42.20
59975;DHT22;62136;-35.664;-63.766;2023-03-01T05:08:03;30.10;42.30
59975;DHT22;62136;-35.664;-63.766;2023-03-01T05:10:31;30.10;42.30
59975;DHT22;62136;-35.664;-63.766;2023-03-01T05:12:59;30.10;42.30
59975;DHT22;62136;-35.664;-63.766;2023-03-01T05:15:28;30.10;42.30
59975;DHT22;62136;-35.664;-63.766;2023-03-01T05:17:58;30.00;42.40
59975;DHT22;62136;-35.664;-63.766;2023-03-01T05:20:26;30.00;42.40
59975;DHT22;62136;-35.664;-63.766;2023-03-01T05:22:57;30.00;42.40
59975;DHT22;62136;-35.664;-63.766;2023-03-01T05:25:25;30.00;42.50
59975;DHT22;62136;-35.664;-63.766;2023-03-01T05:27:53;29.90;42.50
59975;DHT22;62136;-35.664;-63.766;2023-03-01T05:30:20;29.90;42.50
59975;DHT22;62136;-35.664;-63.766;2023-03-01T05:32:49;29.90;42.50
59975;DHT22;62136;-35.664;-63.766;2023-03-01T05:35:21;29.90;42.60
59975;DHT22;62136;-35.664;-63.766;2023-03-01T05:37:49;29.90;42.60
59975;DHT22;62136;-35.664;-63.766;2023-03-01T05:40:19;29.90;42.70
59975;DHT22;62136;-35.664;-63.766;2023-03-01T05:42:49;29.80;42.70
59975;DHT22;62136;-35.664;-63.766;2023-03-01T05:45:18;29.80;42.70
59975;DHT22;62136;-35.664;-63.766;2023-03-01T05:47:46;29.80;42.70
59975;DHT22;62136;-35.664;-63.766;2023-03-01T05:50:17;29.80;42.70
59975;DHT22;62136;-35.664;-63.766;2023-03-01T05:52:49;29.80;42.80
59975;DHT22;62136;-35.664;-63.766;2023-03-01T05:55:18;29.80;42.80
59975;DHT22;62136;-35.664;-63.766;2023-03-01T05:57:46;29.80;42.90
59975;DHT22;62136;-35.664;-63.766;2023-03-01T06:00:15;29.70;42.90
59975;DHT22;62136;-35.664;-63.766;2023-03-01T06:02:42;29.80;42.90
59975;DHT22;62136;-35.664;-63.766;2023-03-01T06:05:11;29.70;42.90
59975;DHT22;62136;-35.664;-63.766;2023-03-01T06:07:39;29.70;42.90
59975;DHT22;62136;-35.664;-63.766;2023-03-01T06:10:07;29.70;43.00
59975;DHT22;62136;-35.664;-63.766;2023-03-01T06:12:37;29.70;43.00
59975;DHT22;62136;-35.664;-63.766;2023-03-01T06:15:05;29.70;43.10
59975;DHT22;62136;-35.664;-63.766;2023-03-01T06:17:34;29.70;43.10
59975;DHT22;62136;-35.664;-63.766;2023-03-01T06:20:10;29.70;43.10
59975;DHT22;62136;-35.664;-63.766;2023-03-01T06:22:38;29.60;43.10
59975;DHT22;62136;-35.664;-63.766;2023-03-01T06:25:07;29.60;43.10
59975;DHT22;62136;-35.664;-63.766;2023-03-01T06:27:34;29.60;43.10
59975;DHT22;62136;-35.664;-63.766;2023-03-01T06:30:02;29.60;43.10
59975;DHT22;62136;-35.664;-63.766;2023-03-01T06:32:29;29.60;43.20
59975;DHT22;62136;-35.664;-63.766;2023-03-01T06:34:57;29.60;42.90
59975;DHT22;62136;-35.664;-63.766;2023-03-01T06:37:25;29.60;43.30
59975;DHT22;62136;-35.664;-63.766;2023-03-01T06:39:52;29.60;43.30
59975;DHT22;62136;-35.664;-63.766;2023-03-01T06:42:19;29.60;43.30
59975;DHT22;62136;-35.664;-63.766;2023-03-01T06:44:46;29.50;43.40
59975;DHT22;62136;-35.664;-63.766;2023-03-01T06:47:13;29.50;43.40
59975;DHT22;62136;-35.664;-63.766;2023-03-01T06:49:41;29.50;43.40
59975;DHT22;62136;-35.664;-63.766;2023-03-01T06:52:08;29.50;43.40
59975;DHT22;62136;-35.664;-63.766;2023-03-01T06:54:35;29.50;43.50
59975;DHT22;62136;-35.664;-63.766;2023-03-01T06:57:02;29.40;43.40
59975;DHT22;62136;-35.664;-63.766;2023-03-01T06:59:29;29.40;43.40
59975;DHT22;62136;-35.664;-63.766;2023-03-01T07:01:56;29.50;43.50
59975;DHT22;62136;-35.664;-63.766;2023-03-01T07:04:23;29.40;43.40
59975;DHT22;62136;-35.664;-63.766;2023-03-01T07:06:50;29.40;43.50
59975;DHT22;62136;-35.664;-63.766;2023-03-01T07:09:22;29.40;43.60
59975;DHT22;62136;-35.664;-63.766;2023-03-01T07:11:50;29.40;43.60
59975;DHT22;62136;-35.664;-63.766;2023-03-01T07:14:17;29.40;43.60
59975;DHT22;62136;-35.664;-63.766;2023-03-01T07:16:46;29.30;43.60
59975;DHT22;62136;-35.664;-63.766;2023-03-01T07:19:13;29.30;43.60
59975;DHT22;62136;-35.664;-63.766;2023-03-01T07:21:40;29.40;43.70
59975;DHT22;62136;-35.664;-63.766;2023-03-01T07:24:08;29.30;43.60
59975;DHT22;62136;-35.664;-63.766;2023-03-01T07:26:35;29.30;43.70
59975;DHT22;62136;-35.664;-63.766;2023-03-01T07:29:06;29.30;43.70
59975;DHT22;62136;-35.664;-63.766;2023-03-01T07:31:33;29.30;43.80
59975;DHT22;62136;-35.664;-63.766;2023-03-01T07:34:01;29.30;43.90
59975;DHT22;62136;-35.664;-63.766;2023-03-01T07:36:28;29.30;43.80
59975;DHT22;62136;-35.664;-63.766;2023-03-01T07:38:55;29.30;43.90
59975;DHT22;62136;-35.664;-63.766;2023-03-01T07:41:22;29.30;43.90
59975;DHT22;62136;-35.664;-63.766;2023-03-01T07:43:49;29.20;43.90
59975;DHT22;62136;-35.664;-63.766;2023-03-01T07:46:16;29.20;43.90
59975;DHT22;62136;-35.664;-63.766;2023-03-01T07:48:45;29.20;44.00
59975;DHT22;62136;-35.664;-63.766;2023-03-01T07:51:12;29.20;44.00
59975;DHT22;62136;-35.664;-63.766;2023-03-01T07:53:39;29.20;44.00
59975;DHT22;62136;-35.664;-63.766;2023-03-01T07:56:10;29.20;44.10
59975;DHT22;62136;-35.664;-63.766;2023-03-01T07:58:40;29.10;44.00
59975;DHT22;62136;-35.664;-63.766;2023-03-01T08:01:10;29.20;44.20
59975;DHT22;62136;-35.664;-63.766;2023-03-01T08:03:38;29.10;44.10
59975;DHT22;62136;-35.664;-63.766;2023-03-01T08:06:07;29.10;44.20
59975;DHT22;62136;-35.664;-63.766;2023-03-01T08:08:35;29.10;44.20
59975;DHT22;62136;-35.664;-63.766;2023-03-01T08:11:04;29.10;43.80
59975;DHT22;62136;-35.664;-63.766;2023-03-01T08:13:32;29.10;44.30
59975;DHT22;62136;-35.664;-63.766;2023-03-01T08:16:08;29.10;44.30
59975;DHT22;62136;-35.664;-63.766;2023-03-01T08:18:35;29.10;44.30
59975;DHT22;62136;-35.664;-63.766;2023-03-01T08:21:04;29.10;44.40
59975;DHT22;62136;-35.664;-63.766;2023-03-01T08:23:31;29.10;44.40
59975;DHT22;62136;-35.664;-63.766;2023-03-01T08:26:07;29.10;44.50
59975;DHT22;62136;-35.664;-63.766;2023-03-01T08:28:35;29.00;44.40
59975;DHT22;62136;-35.664;-63.766;2023-03-01T08:31:03;29.00;44.50
59975;DHT22;62136;-35.664;-63.766;2023-03-01T08:33:39;29.00;44.40
59975;DHT22;62136;-35.664;-63.766;2023-03-01T08:36:07;29.00;44.50
59975;DHT22;62136;-35.664;-63.766;2023-03-01T08:38:34;29.00;44.50
59975;DHT22;62136;-35.664;-63.766;2023-03-01T08:41:03;29.00;44.50
59975;DHT22;62136;-35.664;-63.766;2023-03-01T08:43:30;29.00;44.50
59975;DHT22;62136;-35.664;-63.766;2023-03-01T08:45:57;29.00;44.40
59975;DHT22;62136;-35.664;-63.766;2023-03-01T08:48:24;29.00;44.60
59975;DHT22;62136;-35.664;-63.766;2023-03-01T08:50:51;29.00;44.50
59975;DHT22;62136;-35.664;-63.766;2023-03-01T08:53:18;29.00;44.60
59975;DHT22;62136;-35.664;-63.766;2023-03-01T08:55:46;28.90;44.60
59975;DHT22;62136;-35.664;-63.766;2023-03-01T08:58:13;28.90;44.60
59975;DHT22;62136;-35.664;-63.766;2023-03-01T09:00:40;29.00;44.70
59975;DHT22;62136;-35.664;-63.766;2023-03-01T09:03:07;28.90;45.10
59975;DHT22;62136;-35.664;-63.766;2023-03-01T09:05:34;28.90;44.70
59975;DHT22;62136;-35.664;-63.766;2023-03-01T09:08:03;28.90;44.50
59975;DHT22;62136;-35.664;-63.766;2023-03-01T09:10:30;28.90;44.70
59975;DHT22;62136;-35.664;-63.766;2023-03-01T09:12:57;28.80;44.80
59975;DHT22;62136;-35.664;-63.766;2023-03-01T09:15:24;28.80;44.80
59975;DHT22;62136;-35.664;-63.766;2023-03-01T09:17:51;28.80;44.80
59975;DHT22;62136;-35.664;-63.766;2023-03-01T09:20:18;28.80;44.80
59975;DHT22;62136;-35.664;-63.766;2023-03-01T09:22:46;28.80;44.90
59975;DHT22;62136;-35.664;-63.766;2023-03-01T09:25:15;28.80;44.90
59975;DHT22;62136;-35.664;-63.766;2023-03-01T09:27:42;28.80;45.00
59975;DHT22;62136;-35.664;-63.766;2023-03-01T09:30:10;28.80;45.00
59975;DHT22;62136;-35.664;-63.766;2023-03-01T09:32:38;28.80;45.00
59975;DHT22;62136;-35.664;-63.766;2023-03-01T09:35:09;28.80;45.10
59975;DHT22;62136;-35.664;-63.766;2023-03-01T09:37:37;28.70;45.00
59975;DHT22;62136;-35.664;-63.766;2023-03-01T09:40:10;28.70;45.10
59975;DHT22;62136;-35.664;-63.766;2023-03-01T09:43:06;28.70;45.00
59975;DHT22;62136;-35.664;-63.766;2023-03-01T09:45:38;28.70;45.10
59975;DHT22;62136;-35.664;-63.766;2023-03-01T09:48:12;28.70;45.10
59975;DHT22;62136;-35.664;-63.766;2023-03-01T09:50:43;28.70;45.10
59975;DHT22;62136;-35.664;-63.766;2023-03-01T10:01:30;28.60;46.30
59975;DHT22;62136;-35.664;-63.766;2023-03-01T10:04:32;28.60;46.40
59975;DHT22;62136;-35.664;-63.766;2023-03-01T10:09:43;28.50;46.80
59975;DHT22;62136;-35.664;-63.766;2023-03-01T10:12:26;28.50;47.40
59975;DHT22;62136;-35.664;-63.766;2023-03-01T10:20:23;28.40;48.30
59975;DHT22;62136;-35.664;-63.766;2023-03-01T10:22:51;28.30;48.50
59975;DHT22;62136;-35.664;-63.766;2023-03-01T10:25:44;28.30;48.80
59975;DHT22;62136;-35.664;-63.766;2023-03-01T10:31:26;28.20;49.30
59975;DHT22;62136;-35.664;-63.766;2023-03-01T10:33:56;28.20;48.40
59975;DHT22;62136;-35.664;-63.766;2023-03-01T10:36:25;28.20;49.10
59975;DHT22;62136;-35.664;-63.766;2023-03-01T10:38:56;28.20;49.40
59975;DHT22;62136;-35.664;-63.766;2023-03-01T10:41:27;28.20;48.80
59975;DHT22;62136;-35.664;-63.766;2023-03-01T10:43:57;28.20;49.00
59975;DHT22;62136;-35.664;-63.766;2023-03-01T10:46:37;28.20;49.20
59975;DHT22;62136;-35.664;-63.766;2023-03-01T10:49:22;28.20;49.20
59975;DHT22;62136;-35.664;-63.766;2023-03-01T10:51:53;28.20;48.90
59975;DHT22;62136;-35.664;-63.766;2023-03-01T10:54:31;28.20;49.30
59975;DHT22;62136;-35.664;-63.766;2023-03-01T10:57:02;28.30;49.00
59975;DHT22;62136;-35.664;-63.766;2023-03-01T10:59:32;28.30;49.20
59975;DHT22;62136;-35.664;-63.766;2023-03-01T11:04:36;28.40;49.10
59975;DHT22;62136;-35.664;-63.766;2023-03-01T11:07:03;28.40;49.10
59975;DHT22;62136;-35.664;-63.766;2023-03-01T11:09:34;28.40;49.10
59975;DHT22;62136;-35.664;-63.766;2023-03-01T11:12:14;28.40;49.00
59975;DHT22;62136;-35.664;-63.766;2023-03-01T11:14:53;28.40;49.10
59975;DHT22;62136;-35.664;-63.766;2023-03-01T11:17:29;28.40;49.10
59975;DHT22;62136;-35.664;-63.766;2023-03-01T11:22:32;28.50;49.20
59975;DHT22;62136;-35.664;-63.766;2023-03-01T11:25:01;28.50;49.40
59975;DHT22;62136;-35.664;-63.766;2023-03-01T11:27:32;28.50;49.30
59975;DHT22;62136;-35.664;-63.766;2023-03-01T11:33:11;28.50;49.40
59975;DHT22;62136;-35.664;-63.766;2023-03-01T11:35:49;28.50;49.50
59975;DHT22;62136;-35.664;-63.766;2023-03-01T11:38:25;28.60;49.30
59975;DHT22;62136;-35.664;-63.766;2023-03-01T11:41:00;28.60;49.60
59975;DHT22;62136;-35.664;-63.766;2023-03-01T11:44:03;28.60;49.60
59975;DHT22;62136;-35.664;-63.766;2023-03-01T12:08:42;28.60;49.30
59975;DHT22;62136;-35.664;-63.766;2023-03-01T12:17:14;28.50;48.90
59975;DHT22;62136;-35.664;-63.766;2023-03-01T12:20:21;28.50;48.40
59975;DHT22;62136;-35.664;-63.766;2023-03-01T12:31:22;28.40;47.70
59975;DHT22;62136;-35.664;-63.766;2023-03-01T12:48:31;28.40;46.50
59975;DHT22;62136;-35.664;-63.766;2023-03-01T12:51:14;28.40;46.30
59975;DHT22;62136;-35.664;-63.766;2023-03-01T12:53:50;28.40;46.20
59975;DHT22;62136;-35.664;-63.766;2023-03-01T12:56:21;28.40;45.70
59975;DHT22;62136;-35.664;-63.766;2023-03-01T12:59:15;28.40;45.60
59975;DHT22;62136;-35.664;-63.766;2023-03-01T13:01:59;28.40;45.00
59975;DHT22;62136;-35.664;-63.766;2023-03-01T13:07:29;28.40;44.30
59975;DHT22;62136;-35.664;-63.766;2023-03-01T13:10:06;28.40;45.00
59975;DHT22;62136;-35.664;-63.766;2023-03-01T13:13:03;28.40;45.70
59975;DHT22;62136;-35.664;-63.766;2023-03-01T13:15:38;28.40;44.30
59975;DHT22;62136;-35.664;-63.766;2023-03-01T13:20:48;28.40;43.80
59975;DHT22;62136;-35.664;-63.766;2023-03-01T13:28:50;28.50;43.70
59975;DHT22;62136;-35.664;-63.766;2023-03-01T13:39:01;28.50;43.70
59975;DHT22;62136;-35.664;-63.766;2023-03-01T13:46:47;28.60;43.00
59975;DHT22;62136;-35.664;-63.766;2023-03-01T13:49:21;28.60;43.50
59975;DHT22;62136;-35.664;-63.766;2023-03-01T13:51:49;28.60;43.30
59975;DHT22;62136;-35.664;-63.766;2023-03-01T13:54:26;28.60;43.50
59975;DHT22;62136;-35.664;-63.766;2023-03-01T13:56:55;28.60;43.40
59975;DHT22;62136;-35.664;-63.766;2023-03-01T13:59:23;28.60;43.40
59975;DHT22;62136;-35.664;-63.766;2023-03-01T14:01:58;28.70;43.20
59975;DHT22;62136;-35.664;-63.766;2023-03-01T14:04:33;28.70;43.60
59975;DHT22;62136;-35.664;-63.766;2023-03-01T14:07:20;28.70;43.40
59975;DHT22;62136;-35.664;-63.766;2023-03-01T14:09:52;28.70;43.20
59975;DHT22;62136;-35.664;-63.766;2023-03-01T14:17:55;28.80;43.40
59975;DHT22;62136;-35.664;-63.766;2023-03-01T14:20:32;28.80;43.40
59975;DHT22;62136;-35.664;-63.766;2023-03-01T14:23:13;28.80;42.90
59975;DHT22;62136;-35.664;-63.766;2023-03-01T14:25:48;28.80;43.30
59975;DHT22;62136;-35.664;-63.766;2023-03-01T14:28:19;28.80;44.30
59975;DHT22;62136;-35.664;-63.766;2023-03-01T14:30:50;28.80;43.20
59975;DHT22;62136;-35.664;-63.766;2023-03-01T14:33:31;28.80;44.10
59975;DHT22;62136;-35.664;-63.766;2023-03-01T14:36:12;28.90;43.50
59975;DHT22;62136;-35.664;-63.766;2023-03-01T14:38:43;28.90;43.80
59975;DHT22;62136;-35.664;-63.766;2023-03-01T14:41:12;28.90;43.40
59975;DHT22;62136;-35.664;-63.766;2023-03-01T14:43:50;28.90;43.50
59975;DHT22;62136;-35.664;-63.766;2023-03-01T14:46:24;29.00;44.10
59975;DHT22;62136;-35.664;-63.766;2023-03-01T14:48:53;28.90;43.10
59975;DHT22;62136;-35.664;-63.766;2023-03-01T14:51:21;29.00;43.00
59975;DHT22;62136;-35.664;-63.766;2023-03-01T14:53:49;29.00;43.00
59975;DHT22;62136;-35.664;-63.766;2023-03-01T14:56:17;29.00;43.10
59975;DHT22;62136;-35.664;-63.766;2023-03-01T14:58:46;29.00;42.60
59975;DHT22;62136;-35.664;-63.766;2023-03-01T15:01:18;29.00;42.90
59975;DHT22;62136;-35.664;-63.766;2023-03-01T15:03:49;29.10;42.70
59975;DHT22;62136;-35.664;-63.766;2023-03-01T15:06:26;29.00;43.10
59975;DHT22;62136;-35.664;-63.766;2023-03-01T15:09:03;29.10;43.80
59975;DHT22;62136;-35.664;-63.766;2023-03-01T15:11:32;29.20;44.10
59975;DHT22;62136;-35.664;-63.766;2023-03-01T15:14:00;29.30;44.30
59975;DHT22;62136;-35.664;-63.766;2023-03-01T15:16:30;29.30;44.90
59975;DHT22;62136;-35.664;-63.766;2023-03-01T15:19:15;29.40;44.70
59975;DHT22;62136;-35.664;-63.766;2023-03-01T15:21:46;29.50;43.70
59975;DHT22;62136;-35.664;-63.766;2023-03-01T15:24:24;29.60;43.30
59975;DHT22;62136;-35.664;-63.766;2023-03-01T15:26:58;29.70;42.90
59975;DHT22;62136;-35.664;-63.766;2023-03-01T15:29:32;29.80;42.70
59975;DHT22;62136;-35.664;-63.766;2023-03-01T15:34:32;29.90;42.00
59975;DHT22;62136;-35.664;-63.766;2023-03-01T15:37:01;30.00;41.90
59975;DHT22;62136;-35.664;-63.766;2023-03-01T15:42:03;30.10;41.90
59975;DHT22;62136;-35.664;-63.766;2023-03-01T15:44:34;30.10;41.90
59975;DHT22;62136;-35.664;-63.766;2023-03-01T15:47:03;30.20;42.10
59975;DHT22;62136;-35.664;-63.766;2023-03-01T15:52:00;30.40;41.90
59975;DHT22;62136;-35.664;-63.766;2023-03-01T15:54:29;30.40;42.20
59975;DHT22;62136;-35.664;-63.766;2023-03-01T15:56:56;30.50;42.10
59975;DHT22;62136;-35.664;-63.766;2023-03-01T15:59:23;30.50;42.30
59975;DHT22;62136;-35.664;-63.766;2023-03-01T16:01:50;30.50;42.10
59975;DHT22;62136;-35.664;-63.766;2023-03-01T16:04:18;30.60;42.00
59975;DHT22;62136;-35.664;-63.766;2023-03-01T16:06:51;30.70;42.40
59975;DHT22;62136;-35.664;-63.766;2023-03-01T16:09:25;30.70;42.20
59975;DHT22;62136;-35.664;-63.766;2023-03-01T16:11:53;30.80;42.20
59975;DHT22;62136;-35.664;-63.766;2023-03-01T16:14:21;30.80;42.10
59975;DHT22;62136;-35.664;-63.766;2023-03-01T16:16:48;30.80;42.20
59975;DHT22;62136;-35.664;-63.766;2023-03-01T16:19:16;30.90;42.00
59975;DHT22;62136;-35.664;-63.766;2023-03-01T16:21:43;30.90;42.00
59975;DHT22;62136;-35.664;-63.766;2023-03-01T16:24:13;30.90;41.90
59975;DHT22;62136;-35.664;-63.766;2023-03-01T16:26:40;31.00;42.00
59975;DHT22;62136;-35.664;-63.766;2023-03-01T16:29:08;31.00;42.00
59975;DHT22;62136;-35.664;-63.766;2023-03-01T16:31:36;31.10;42.00
59975;DHT22;62136;-35.664;-63.766;2023-03-01T16:34:04;31.10;42.10
59975;DHT22;62136;-35.664;-63.766;2023-03-01T16:36:31;31.10;41.90
59975;DHT22;62136;-35.664;-63.766;2023-03-01T16:38:59;31.20;42.10
59975;DHT22;62136;-35.664;-63.766;2023-03-01T16:41:29;31.20;42.40
59975;DHT22;62136;-35.664;-63.766;2023-03-01T16:43:57;31.20;42.20
59975;DHT22;62136;-35.664;-63.766;2023-03-01T16:46:26;31.20;42.00
59975;DHT22;62136;-35.664;-63.766;2023-03-01T16:48:56;31.30;42.10
59975;DHT22;62136;-35.664;-63.766;2023-03-01T16:51:24;31.40;42.20
59975;DHT22;62136;-35.664;-63.766;2023-03-01T16:53:51;31.30;41.90
59975;DHT22;62136;-35.664;-63.766;2023-03-01T16:56:19;31.40;42.10
59975;DHT22;62136;-35.664;-63.766;2023-03-01T16:58:46;31.40;42.20
59975;DHT22;62136;-35.664;-63.766;2023-03-01T17:01:16;31.50;42.20
59975;DHT22;62136;-35.664;-63.766;2023-03-01T17:03:44;31.40;41.90
59975;DHT22;62136;-35.664;-63.766;2023-03-01T17:06:15;31.50;41.90
59975;DHT22;62136;-35.664;-63.766;2023-03-01T17:08:42;31.50;42.60
59975;DHT22;62136;-35.664;-63.766;2023-03-01T17:11:15;31.60;42.10
59975;DHT22;62136;-35.664;-63.766;2023-03-01T17:13:42;31.60;42.20
59975;DHT22;62136;-35.664;-63.766;2023-03-01T17:16:11;31.60;42.10
59975;DHT22;62136;-35.664;-63.766;2023-03-01T17:18:39;31.60;42.10
59975;DHT22;62136;-35.664;-63.766;2023-03-01T17:21:07;31.60;42.00